Kezdőlap
METAR-TAF:

METAR-TAF

Repülőterek :

Belgrád, Szerbia

földrajzi szélesség: 44-49N, földrajzi hosszúság: 020-17E, magasság: 96 m

Jelenlegi meteorológiai megfigyelések

A jelentés 31 perccel ezelõtt készült, 22:30 UTC
Keleti szél 6 kt
Hőmérséklet 16°C
Páratartalom 72%
Légköri nyomás 1016 hPa
Látótávolság 10 km, vagy több
felhőtlen 1500 m magasságban, és nincs gomolyfelhõ

METAR: LYBE 272230Z 08006KT CAVOK 16/11 Q1016 NOSIG

Idő: 01:01 (23:01 UTC)

Előrejelzés

A jelentés 6 órával és 1 perccel ezelõtt készült, 17:00 UTC
Az előrejelzés 27-én 18 óra UTC és 28-én 18 óra UTC között érvényes
Észak-északkeleti szél 6 kt
Látótávolság 10 km, vagy több
felhőtlen 1500 m magasságban, és nincs gomolyfelhõ
28-én 02 óra UTC és 28-én 05 óra UTC között ideiglenes
Látótávolság: 3000 m
Párásság,

TAF: LYBE 271700Z 2718/2818 02006KT CAVOK TX27/2813Z TN12/2803Z TEMPO 2802/2805 3000 BR

Meteorológiai megfigyelések és előrejelzések több, mint 4000 repülőtéren (METAR és TAF jelentéseket).

A térképen piros és sárga pontok jelzik az elérhető meteorológiai állomásokat.

Mozgassa az egeret a pont fölött, hogy megjelenjen az állomás neve.

Azután kattintson az időjárási megfigyelések és előrejelzések megtekintéséhez.

A térkép megváltoztatása: kattintson a fekete keresztel jelölt zöld gombra ráközelítéshez, a vonallal jelölt zöld gombra távolításhoz, vagy a zöld nyilakra a szomszédos térképek eléréséhez.


METAR-TAF: